createdAt,value
2022-11-24T00:03:28.019Z,100161.28
2022-11-24T00:08:33.172Z,100170.09
2022-11-24T00:13:39.022Z,100171.94
2022-11-24T00:18:44.557Z,100169.50
2022-11-24T00:23:50.572Z,100174.72
2022-11-24T00:28:55.718Z,100176.84
2022-11-24T00:34:01.231Z,100181.16
2022-11-24T00:39:07.546Z,100173.09
2022-11-24T00:44:11.215Z,100174.88
2022-11-24T00:49:15.014Z,100172.75
2022-11-24T00:54:20.062Z,100183.63
2022-11-24T00:59:23.706Z,100177.00
2022-11-24T01:04:27.502Z,100192.69
2022-11-24T01:09:32.544Z,100198.66
2022-11-24T01:14:36.583Z,100207.56
2022-11-24T01:19:40.406Z,100198.16
2022-11-24T01:24:45.731Z,100209.25
2022-11-24T01:29:49.559Z,100202.34
2022-11-24T01:34:53.330Z,100208.94
2022-11-24T01:39:58.445Z,100225.22
2022-11-24T01:45:41.624Z,100228.56
2022-11-24T01:50:46.167Z,100236.78
2022-11-24T01:55:53.607Z,100243.53
2022-11-24T02:00:57.258Z,100239.44
2022-11-24T02:06:04.060Z,100248.84
2022-11-24T02:11:09.204Z,100260.81
2022-11-24T02:16:13.552Z,100266.91
2022-11-24T02:21:17.655Z,100267.78
2022-11-24T02:26:30.670Z,100267.22
2022-11-24T02:31:34.443Z,100273.31
2022-11-24T02:36:38.462Z,100276.31
2022-11-24T02:41:47.232Z,100276.31
2022-11-24T02:46:50.887Z,100289.16
2022-11-24T02:51:54.644Z,100296.31
2022-11-24T02:56:59.835Z,100292.06
2022-11-24T03:02:03.939Z,100297.34
2022-11-24T03:07:08.210Z,100305.13
2022-11-24T03:12:13.264Z,100305.41
2022-11-24T03:17:16.935Z,100305.72
2022-11-24T03:22:20.579Z,100317.72
2022-11-24T03:27:25.671Z,100318.50
2022-11-24T03:32:29.342Z,100315.28
2022-11-24T03:37:33.047Z,100319.59
2022-11-24T03:42:38.086Z,100315.28
2022-11-24T03:47:41.773Z,100322.37
2022-11-24T03:52:45.406Z,100320.84
2022-11-24T03:57:50.420Z,100325.03
2022-11-24T04:02:54.320Z,100326.66
2022-11-24T04:07:58.727Z,100354.81
2022-11-24T04:13:04.757Z,100366.63
2022-11-24T04:18:09.157Z,100376.44
2022-11-24T04:23:13.041Z,100374.66
2022-11-24T04:28:18.128Z,100386.19
2022-11-24T04:33:21.805Z,100398.34
2022-11-24T04:39:24.540Z,100421.34
2022-11-24T04:43:51.594Z,100414.91
2022-11-24T04:48:55.293Z,100422.63
2022-11-24T04:53:59.001Z,100423.00
2022-11-24T04:59:08.159Z,100427.13
2022-11-24T05:04:13.707Z,100430.50
2022-11-24T05:09:18.576Z,100433.78
2022-11-24T05:14:23.630Z,100435.62
2022-11-24T05:19:31.254Z,100442.72
2022-11-24T05:24:36.278Z,100441.00
2022-11-24T05:29:41.471Z,100448.72
2022-11-24T05:34:45.934Z,100467.63
2022-11-24T05:39:49.633Z,100477.19
2022-11-24T05:44:55.143Z,100478.78
2022-11-24T05:49:58.920Z,100490.06
2022-11-24T05:55:02.687Z,100484.56
2022-11-24T06:00:10.966Z,100489.81
2022-11-24T06:05:15.727Z,100491.56
2022-11-24T06:10:21.300Z,100511.09
2022-11-24T06:15:26.449Z,100511.34
2022-11-24T06:20:32.913Z,100526.53
2022-11-24T06:25:36.882Z,100529.16
2022-11-24T06:30:41.934Z,100543.78
2022-11-24T06:35:45.719Z,100560.97
2022-11-24T06:40:49.578Z,100573.03
2022-11-24T06:45:54.675Z,100583.78
2022-11-24T06:51:00.302Z,100591.16
2022-11-24T06:56:06.701Z,100606.66
2022-11-24T07:01:17.044Z,100619.63
2022-11-24T07:06:22.508Z,100633.34
2022-11-24T07:11:26.765Z,100642.03
2022-11-24T07:16:32.770Z,100648.81
2022-11-24T07:21:36.511Z,100655.41
2022-11-24T07:26:40.383Z,100671.37
2022-11-24T07:31:46.246Z,100681.13
2022-11-24T07:36:50.157Z,100675.81
2022-11-24T07:41:53.910Z,100680.53
2022-11-24T07:46:58.974Z,100698.69
2022-11-24T07:52:02.795Z,100715.34
2022-11-24T07:57:06.596Z,100715.63
2022-11-24T08:02:13.883Z,100736.41
2022-11-24T08:07:17.676Z,100735.63
2022-11-24T08:12:22.496Z,100741.81
2022-11-24T08:17:29.341Z,100755.75
2022-11-24T08:22:33.037Z,100760.06
2022-11-24T08:27:36.707Z,100766.09
2022-11-24T08:32:41.758Z,100778.50
2022-11-24T08:37:45.571Z,100780.47
2022-11-24T08:42:49.356Z,100798.63
2022-11-24T08:47:55.343Z,100804.03
2022-11-24T08:52:59.081Z,100813.81
2022-11-24T08:58:02.885Z,100821.94
2022-11-24T09:03:08.066Z,100822.28
2022-11-24T09:08:11.738Z,100820.88
2022-11-24T09:13:15.511Z,100826.53
2022-11-24T09:18:20.885Z,100833.75
2022-11-24T09:23:24.752Z,100839.31
2022-11-24T09:28:28.767Z,100846.13
2022-11-24T09:33:34.911Z,100846.63
2022-11-24T09:38:38.924Z,100852.28
2022-11-24T09:43:51.966Z,100851.19
2022-11-24T09:48:59.578Z,100859.75
2022-11-24T09:54:10.571Z,100866.03
2022-11-24T09:59:17.060Z,100871.06
2022-11-24T10:04:26.302Z,100870.13
2022-11-24T10:09:43.850Z,100879.75
2022-11-24T10:15:05.254Z,100886.03
2022-11-24T10:20:20.278Z,100907.69
2022-11-24T10:25:27.292Z,100897.44
2022-11-24T10:30:32.510Z,100896.78
2022-11-24T10:35:41.794Z,100905.53
2022-11-24T10:40:57.138Z,100898.13
2022-11-24T10:46:11.494Z,100890.81
2022-11-24T10:51:38.083Z,100895.41
2022-11-24T10:56:42.416Z,100886.00
2022-11-24T11:01:46.362Z,100893.88
2022-11-24T11:06:51.671Z,100883.63
2022-11-24T11:11:55.550Z,100883.34
2022-11-24T11:17:00.137Z,100888.91
2022-11-24T11:22:14.703Z,100874.69
2022-11-24T11:27:20.739Z,100887.50
2022-11-24T11:37:52.445Z,100885.97
2022-11-24T11:43:03.085Z,100890.78
2022-11-24T11:48:26.171Z,100894.44
2022-11-24T11:53:44.704Z,100878.84
2022-11-24T11:59:06.449Z,100881.81
2022-11-24T12:04:21.833Z,100891.50
2022-11-24T12:09:38.227Z,100887.72
2022-11-24T12:15:07.360Z,100882.50
2022-11-24T12:20:38.854Z,100881.88
2022-11-24T12:25:49.397Z,100887.13
2022-11-24T12:31:06.035Z,100883.44
2022-11-24T12:36:17.510Z,100893.16
2022-11-24T12:41:42.948Z,100888.25
2022-11-24T12:46:54.541Z,100883.53
2022-11-24T12:52:04.234Z,100896.59
2022-11-24T12:57:16.043Z,100879.62
2022-11-24T13:02:32.508Z,100885.06
2022-11-24T13:07:44.173Z,100886.62
2022-11-24T13:12:56.844Z,100886.50
2022-11-24T13:18:10.611Z,100895.94
2022-11-24T13:23:25.738Z,100885.75
2022-11-24T13:29:08.878Z,100883.66
2022-11-24T13:34:55.884Z,100887.94
2022-11-24T13:40:00.999Z,100892.66
2022-11-24T13:45:26.913Z,100886.44
2022-11-24T13:51:10.447Z,100870.28
2022-11-24T13:56:24.878Z,100884.59
2022-11-24T14:01:32.365Z,100882.78
2022-11-24T14:06:41.354Z,100867.72
2022-11-24T14:11:47.946Z,100854.78
2022-11-24T14:22:22.578Z,100860.47
2022-11-24T14:27:31.324Z,100860.47
2022-11-24T14:32:35.028Z,100870.72
2022-11-24T14:37:40.084Z,100871.78
2022-11-24T14:42:50.771Z,100873.75
2022-11-24T14:47:55.612Z,100876.47
2022-11-24T14:53:01.278Z,100874.34
2022-11-24T14:58:21.527Z,100871.63
2022-11-24T15:03:25.357Z,100875.53
2022-11-24T15:08:36.763Z,100872.72
2022-11-24T15:13:41.078Z,100875.09
2022-11-24T15:18:47.014Z,100879.19
2022-11-24T15:29:19.051Z,100878.63
2022-11-24T15:34:22.845Z,100878.63
2022-11-24T15:39:26.506Z,100890.69
2022-11-24T15:44:31.704Z,100882.19
2022-11-24T15:49:35.489Z,100872.62
2022-11-24T15:54:39.228Z,100874.19
2022-11-24T15:59:44.240Z,100866.28
2022-11-24T16:04:48.029Z,100869.50
2022-11-24T16:09:51.772Z,100871.34
2022-11-24T16:14:56.875Z,100879.88
2022-11-24T16:20:01.077Z,100884.03
2022-11-24T16:25:05.308Z,100891.56
2022-11-24T16:30:13.153Z,100897.41
2022-11-24T16:35:17.144Z,100895.13
2022-11-24T16:40:20.828Z,100883.03
2022-11-24T16:45:26.011Z,100881.34
2022-11-24T16:50:29.845Z,100888.25
2022-11-24T16:55:33.598Z,100892.19
2022-11-24T17:00:38.707Z,100885.75
2022-11-24T17:05:42.648Z,100890.75
2022-11-24T17:10:46.393Z,100882.28
2022-11-24T17:15:54.346Z,100888.81
2022-11-24T17:21:02.034Z,100889.38
2022-11-24T17:26:11.292Z,100897.09
2022-11-24T17:31:21.234Z,100892.75
2022-11-24T17:36:25.325Z,100893.88
2022-11-24T17:41:29.087Z,100898.63
2022-11-24T17:46:34.212Z,100891.37
2022-11-24T17:51:38.086Z,100884.41
2022-11-24T17:56:42.755Z,100871.13
2022-11-24T18:01:47.825Z,100870.66
2022-11-24T18:06:51.719Z,100876.88
2022-11-24T18:11:55.533Z,100863.38
2022-11-24T18:17:00.707Z,100871.97
2022-11-24T18:22:04.455Z,100873.94
2022-11-24T18:27:08.356Z,100873.09
2022-11-24T18:32:13.528Z,100877.00
2022-11-24T18:37:17.615Z,100865.62
2022-11-24T18:42:22.309Z,100868.44
2022-11-24T18:47:27.405Z,100872.94
2022-11-24T18:52:31.106Z,100862.59
2022-11-24T18:57:34.820Z,100857.22
2022-11-24T19:02:39.979Z,100860.37
2022-11-24T19:07:43.837Z,100868.97
2022-11-24T19:12:47.668Z,100867.06
2022-11-24T19:17:52.748Z,100867.06
2022-11-24T19:22:56.567Z,100869.19
2022-11-24T19:28:00.294Z,100860.28
2022-11-24T19:33:07.615Z,100863.00
2022-11-24T19:38:14.976Z,100860.53
2022-11-24T19:43:19.112Z,100855.84
2022-11-24T19:48:24.233Z,100849.72
2022-11-24T19:53:28.179Z,100853.19
2022-11-24T19:58:32.217Z,100842.78
2022-11-24T20:03:37.959Z,100844.72
2022-11-24T20:08:42.951Z,100859.63
2022-11-24T20:13:48.427Z,100853.53
2022-11-24T20:18:55.126Z,100849.50
2022-11-24T20:24:01.292Z,100847.56
2022-11-24T20:29:05.552Z,100860.28
2022-11-24T20:34:11.601Z,100855.53
2022-11-24T20:39:17.413Z,100859.81
2022-11-24T20:44:22.630Z,100860.13
2022-11-24T20:49:28.806Z,100860.94
2022-11-24T20:54:32.843Z,100860.37
2022-11-24T20:59:36.911Z,100850.94
2022-11-24T21:04:42.045Z,100849.22
2022-11-24T21:09:45.802Z,100830.41
2022-11-24T21:14:49.498Z,100837.41
2022-11-24T21:19:59.583Z,100834.09
2022-11-24T21:25:04.990Z,100827.19
2022-11-24T21:30:10.095Z,100823.56
2022-11-24T21:35:15.194Z,100812.78
2022-11-24T21:40:19.021Z,100817.94
2022-11-24T21:45:22.880Z,100809.34
2022-11-24T21:50:28.299Z,100795.56
2022-11-24T21:55:32.128Z,100804.25
2022-11-24T22:00:35.871Z,100794.13
2022-11-24T22:05:40.928Z,100802.97
2022-11-24T22:10:44.723Z,100797.00
2022-11-24T22:15:48.478Z,100796.19
2022-11-24T22:20:56.483Z,100797.31
2022-11-24T22:26:03.915Z,100798.03
2022-11-24T22:31:09.863Z,100794.47
2022-11-24T22:36:16.299Z,100787.19
2022-11-24T22:41:20.381Z,100789.25
2022-11-24T22:46:26.138Z,100790.16
2022-11-24T22:51:33.558Z,100786.75
2022-11-24T22:56:37.267Z,100790.91
2022-11-24T23:01:41.118Z,100789.19
2022-11-24T23:06:46.220Z,100787.41
2022-11-24T23:11:50.099Z,100792.78
2022-11-24T23:16:54.823Z,100786.06
2022-11-24T23:21:59.981Z,100792.69
2022-11-24T23:27:03.686Z,100789.00
2022-11-24T23:32:07.486Z,100788.03
2022-11-24T23:37:12.634Z,100778.63
2022-11-24T23:42:16.325Z,100781.72
2022-11-24T23:47:20.050Z,100782.87
2022-11-24T23:52:25.107Z,100782.97
2022-11-24T23:57:28.786Z,100786.56
